Topeka, KS

5:10 PM CDT on April 23, 2017 (GMT -0500)
Oakland | | Change Station

Elev 911 ft 39.07 °N, 95.64 °W | Updated 3 seconds ago

Clear
Clear
70.6 °F
Feels Like 74 °F
N
3.0
Wind Variable Wind from South
Gusts 8.0 mph

Today
High -- | Low -- °F
--% Chance of Precip.
Yesterday
High -- | Low -- °F
Precip. -- in
Pressure 30.04 in
Visibility 10.0 miles
Clouds Clear
Heat Index 74 °F
Dew Point 28 °F
Humidity 20%
Rainfall 0.00 in
Snow Depth Not available.
6:34 AM 8:07 PM
Waning Crescent, 9% visible
METAR KTOP 232153Z VRB06KT 10SM CLR 21/00 A3005 RMK AO2 SLP173 T02110000
Pressure 30.04 in
Visibility 10.0 miles
Clouds Clear
Heat Index 74 °F
Dew Point 28 °F
Humidity 20%
Rainfall 0.00 in
Snow Depth Not available.
6:34 AM 8:07 PM
Waning Crescent, 9% visible
METAR KTOP 232153Z VRB06KT 10SM CLR 21/00 A3005 RMK AO2 SLP173 T02110000

Get Severe Weather Alerts

Thanks for signing up!

Be on the lookout for a verification email in your inbox.

You'll start receiving the daily forecast at 8 AM.

×

10-Day Weather Forecast

Almanac

Astronomy

Apr. 23, 2017 Rise Set
Actual Time
Civil Twilight
Nautical Twilight
Astronomical Twilight
Moon
Length of Visible Light
Length of Day
Tomorrow will be .
, % of the Moon is Illuminated

Today's Extremes

State Highs State Lows

Community

WunderPhotos

WunderBlog® & News

Nearby

Air Quality

  Air Quality AQ Index Pollutant
Not available.

Snow Depth

Station Depth Elevation

Earthquake Activity

City Distance Mag. Time & Date
Minimum magnitude displayed is 2.5.

Coastal Water Temperatures

Place Temperature

Stations

Nearby Weather Stations

Station Location Temp. Windchill Dew Point Humidity Wind Precip. Elev Updated Type
                   

Watches & Warnings

There are currently no watches in effect.